sensor_id;sensor_type;location;lat;lon;timestamp;pressure;altitude;pressure_sealevel;temperature;humidity
46836;BME280;32573;51.290;6.926;2022-08-19T00:01:38;99908.91;;;19.59;100.00
46836;BME280;32573;51.290;6.926;2022-08-19T00:04:09;99908.03;;;19.56;100.00
46836;BME280;32573;51.290;6.926;2022-08-19T00:06:40;99909.84;;;19.54;100.00
46836;BME280;32573;51.290;6.926;2022-08-19T00:09:11;99911.66;;;19.50;100.00
46836;BME280;32573;51.290;6.926;2022-08-19T00:11:41;99910.81;;;19.48;100.00
46836;BME280;32573;51.290;6.926;2022-08-19T00:14:13;99911.72;;;19.46;100.00
46836;BME280;32573;51.290;6.926;2022-08-19T00:16:46;99910.84;;;19.45;100.00
46836;BME280;32573;51.290;6.926;2022-08-19T00:19:15;99914.38;;;19.44;100.00
46836;BME280;32573;51.290;6.926;2022-08-19T00:21:44;99906.47;;;19.41;100.00
46836;BME280;32573;51.290;6.926;2022-08-19T00:24:14;99904.72;;;19.38;100.00
46836;BME280;32573;51.290;6.926;2022-08-19T00:26:44;99896.81;;;19.37;100.00
46836;BME280;32573;51.290;6.926;2022-08-19T00:29:15;99895.94;;;19.33;100.00
46836;BME280;32573;51.290;6.926;2022-08-19T00:31:46;99901.25;;;19.32;100.00
46836;BME280;32573;51.290;6.926;2022-08-19T00:34:20;99903.97;;;19.29;100.00
46836;BME280;32573;51.290;6.926;2022-08-19T00:36:49;99898.69;;;19.26;100.00
46836;BME280;32573;51.290;6.926;2022-08-19T00:39:17;99899.59;;;19.23;100.00
46836;BME280;32573;51.290;6.926;2022-08-19T00:41:47;99896.97;;;19.22;100.00
46836;BME280;32573;51.290;6.926;2022-08-19T00:44:20;99897.00;;;19.18;100.00
46836;BME280;32573;51.290;6.926;2022-08-19T00:46:57;99902.34;;;19.15;100.00
46836;BME280;32573;51.290;6.926;2022-08-19T00:49:30;99898.84;;;19.13;100.00
46836;BME280;32573;51.290;6.926;2022-08-19T00:52:02;99900.63;;;19.11;100.00
46836;BME280;32573;51.290;6.926;2022-08-19T00:54:32;99898.91;;;19.07;100.00
46836;BME280;32573;51.290;6.926;2022-08-19T00:57:03;99894.50;;;19.06;100.00
46836;BME280;32573;51.290;6.926;2022-08-19T00:59:34;99895.44;;;19.02;100.00
46836;BME280;32573;51.290;6.926;2022-08-19T01:02:26;99900.75;;;18.99;100.00
46836;BME280;32573;51.290;6.926;2022-08-19T01:04:56;99885.75;;;18.96;100.00
46836;BME280;32573;51.290;6.926;2022-08-19T01:07:25;99884.91;;;18.93;100.00
46836;BME280;32573;51.290;6.926;2022-08-19T01:09:53;99904.34;;;18.92;100.00
46836;BME280;32573;51.290;6.926;2022-08-19T01:12:22;99900.88;;;18.90;100.00
46836;BME280;32573;51.290;6.926;2022-08-19T01:14:51;99905.31;;;18.88;100.00
46836;BME280;32573;51.290;6.926;2022-08-19T01:17:20;99895.59;;;18.85;100.00
46836;BME280;32573;51.290;6.926;2022-08-19T01:19:50;99893.88;;;18.83;100.00
46836;BME280;32573;51.290;6.926;2022-08-19T01:22:27;99899.22;;;18.80;100.00
46836;BME280;32573;51.290;6.926;2022-08-19T01:25:00;99901.00;;;18.78;100.00
46836;BME280;32573;51.290;6.926;2022-08-19T01:27:37;99902.78;;;18.75;100.00
46836;BME280;32573;51.290;6.926;2022-08-19T01:30:12;99894.78;;;18.74;100.00
46836;BME280;32573;51.290;6.926;2022-08-19T01:32:41;99901.00;;;18.71;100.00
46836;BME280;32573;51.290;6.926;2022-08-19T01:35:12;99901.91;;;18.70;100.00
46836;BME280;32573;51.290;6.926;2022-08-19T01:37:48;99890.44;;;18.68;100.00
46836;BME280;32573;51.290;6.926;2022-08-19T01:40:18;99892.22;;;18.66;100.00
46836;BME280;32573;51.290;6.926;2022-08-19T01:42:47;99894.00;;;18.64;100.00
46836;BME280;32573;51.290;6.926;2022-08-19T01:45:16;99897.56;;;18.63;100.00
46836;BME280;32573;51.290;6.926;2022-08-19T01:47:45;99890.50;;;18.59;100.00
46836;BME280;32573;51.290;6.926;2022-08-19T01:50:27;99886.13;;;18.57;100.00
46836;BME280;32573;51.290;6.926;2022-08-19T01:52:57;99916.19;;;18.54;100.00
46836;BME280;32573;51.290;6.926;2022-08-19T01:55:30;99887.06;;;18.51;100.00
46836;BME280;32573;51.290;6.926;2022-08-19T01:58:00;99896.78;;;18.49;100.00
46836;BME280;32573;51.290;6.926;2022-08-19T02:00:31;99884.44;;;18.46;100.00
46836;BME280;32573;51.290;6.926;2022-08-19T02:03:00;99887.13;;;18.45;100.00
46836;BME280;32573;51.290;6.926;2022-08-19T02:05:28;99877.44;;;18.41;100.00
46836;BME280;32573;51.290;6.926;2022-08-19T02:07:58;99884.50;;;18.39;100.00
46836;BME280;32573;51.290;6.926;2022-08-19T02:10:27;99887.19;;;18.37;100.00
46836;BME280;32573;51.290;6.926;2022-08-19T02:12:55;99878.38;;;18.33;100.00
46836;BME280;32573;51.290;6.926;2022-08-19T02:15:23;99877.50;;;18.31;100.00
46836;BME280;32573;51.290;6.926;2022-08-19T02:17:52;99873.97;;;18.29;100.00
46836;BME280;32573;51.290;6.926;2022-08-19T02:20:21;99880.19;;;18.28;100.00
46836;BME280;32573;51.290;6.926;2022-08-19T02:22:49;99884.66;;;18.25;100.00
46836;BME280;32573;51.290;6.926;2022-08-19T02:25:19;99887.28;;;18.23;100.00
46836;BME280;32573;51.290;6.926;2022-08-19T02:27:48;99894.38;;;18.21;100.00
46836;BME280;32573;51.290;6.926;2022-08-19T02:30:17;99896.16;;;18.19;100.00
46836;BME280;32573;51.290;6.926;2022-08-19T02:32:45;99892.66;;;18.17;100.00
46836;BME280;32573;51.290;6.926;2022-08-19T02:35:14;99890.88;;;18.16;100.00
46836;BME280;32573;51.290;6.926;2022-08-19T02:37:43;99884.72;;;18.14;100.00
46836;BME280;32573;51.290;6.926;2022-08-19T02:40:30;99882.09;;;18.11;100.00
46836;BME280;32573;51.290;6.926;2022-08-19T02:43:00;99889.16;;;18.09;100.00
46836;BME280;32573;51.290;6.926;2022-08-19T02:45:31;99906.84;;;18.07;100.00
46836;BME280;32573;51.290;6.926;2022-08-19T02:48:00;99903.34;;;18.05;100.00
46836;BME280;32573;51.290;6.926;2022-08-19T02:50:31;99910.41;;;18.03;100.00
46836;BME280;32573;51.290;6.926;2022-08-19T02:53:00;99906.88;;;18.01;100.00
46836;BME280;32573;51.290;6.926;2022-08-19T02:55:30;99908.66;;;17.99;100.00
46836;BME280;32573;51.290;6.926;2022-08-19T02:58:12;99903.38;;;17.96;100.00
46836;BME280;32573;51.290;6.926;2022-08-19T03:00:42;99908.72;;;17.93;100.00
46836;BME280;32573;51.290;6.926;2022-08-19T03:03:11;99910.50;;;17.91;100.00
46836;BME280;32573;51.290;6.926;2022-08-19T03:05:41;99910.50;;;17.87;100.00
46836;BME280;32573;51.290;6.926;2022-08-19T03:08:23;99907.00;;;17.85;100.00
46836;BME280;32573;51.290;6.926;2022-08-19T03:10:54;99910.50;;;17.84;100.00
46836;BME280;32573;51.290;6.926;2022-08-19T03:13:22;99905.22;;;17.81;100.00
46836;BME280;32573;51.290;6.926;2022-08-19T03:15:51;99903.50;;;17.80;100.00
46836;BME280;32573;51.290;6.926;2022-08-19T03:18:20;99906.97;;;17.79;100.00
46836;BME280;32573;51.290;6.926;2022-08-19T03:20:50;99899.94;;;17.78;100.00
46836;BME280;32573;51.290;6.926;2022-08-19T03:23:22;99904.34;;;17.78;100.00
46836;BME280;32573;51.290;6.926;2022-08-19T03:25:53;99896.41;;;17.76;100.00
46836;BME280;32573;51.290;6.926;2022-08-19T03:28:32;99899.06;;;17.73;100.00
46836;BME280;32573;51.290;6.926;2022-08-19T03:31:05;99902.59;;;17.72;100.00
46836;BME280;32573;51.290;6.926;2022-08-19T03:33:54;99907.94;;;17.67;100.00
46836;BME280;32573;51.290;6.926;2022-08-19T03:36:25;99898.25;;;17.65;100.00
46836;BME280;32573;51.290;6.926;2022-08-19T03:38:58;99905.31;;;17.63;100.00
46836;BME280;32573;51.290;6.926;2022-08-19T03:41:30;99896.50;;;17.61;100.00
46836;BME280;32573;51.290;6.926;2022-08-19T03:44:11;99898.25;;;17.59;100.00
46836;BME280;32573;51.290;6.926;2022-08-19T03:46:44;99896.53;;;17.58;100.00
46836;BME280;32573;51.290;6.926;2022-08-19T03:49:14;99898.28;;;17.56;100.00
46836;BME280;32573;51.290;6.926;2022-08-19T03:51:46;99908.91;;;17.53;100.00
46836;BME280;32573;51.290;6.926;2022-08-19T03:54:16;99908.91;;;17.53;100.00
46836;BME280;32573;51.290;6.926;2022-08-19T03:56:48;99915.97;;;17.51;100.00
46836;BME280;32573;51.290;6.926;2022-08-19T03:59:18;99916.84;;;17.48;100.00
46836;BME280;32573;51.290;6.926;2022-08-19T04:01:47;99925.66;;;17.47;100.00
46836;BME280;32573;51.290;6.926;2022-08-19T04:04:16;99922.13;;;17.46;100.00
46836;BME280;32573;51.290;6.926;2022-08-19T04:06:46;99917.75;;;17.45;100.00
46836;BME280;32573;51.290;6.926;2022-08-19T04:09:15;99923.03;;;17.45;100.00
46836;BME280;32573;51.290;6.926;2022-08-19T04:11:46;99924.78;;;17.46;100.00
46836;BME280;32573;51.290;6.926;2022-08-19T04:14:17;99930.06;;;17.46;100.00
46836;BME280;32573;51.290;6.926;2022-08-19T04:16:46;99912.44;;;17.45;100.00
46836;BME280;32573;51.290;6.926;2022-08-19T04:19:17;99921.28;;;17.48;100.00
46836;BME280;32573;51.290;6.926;2022-08-19T04:21:48;99915.97;;;17.48;100.00
46836;BME280;32573;51.290;6.926;2022-08-19T04:24:18;99917.72;;;17.49;100.00
46836;BME280;32573;51.290;6.926;2022-08-19T04:26:48;99907.13;;;17.49;100.00
46836;BME280;32573;51.290;6.926;2022-08-19T04:29:19;99911.53;;;17.50;100.00
46836;BME280;32573;51.290;6.926;2022-08-19T04:31:49;99918.59;;;17.51;100.00
46836;BME280;32573;51.290;6.926;2022-08-19T04:34:19;99921.25;;;17.51;100.00
46836;BME280;32573;51.290;6.926;2022-08-19T04:36:50;99921.25;;;17.51;100.00
46836;BME280;32573;51.290;6.926;2022-08-19T04:39:22;99923.00;;;17.52;100.00
46836;BME280;32573;51.290;6.926;2022-08-19T04:42:12;99926.53;;;17.51;100.00
46836;BME280;32573;51.290;6.926;2022-08-19T04:44:59;99926.53;;;17.49;100.00
46836;BME280;32573;51.290;6.926;2022-08-19T04:47:31;99929.19;;;17.49;100.00
46836;BME280;32573;51.290;6.926;2022-08-19T04:50:20;99932.69;;;17.50;100.00
46836;BME280;32573;51.290;6.926;2022-08-19T04:52:50;99933.63;;;17.50;100.00
46836;BME280;32573;51.290;6.926;2022-08-19T04:55:19;99940.66;;;17.50;100.00
46836;BME280;32573;51.290;6.926;2022-08-19T04:57:49;99951.22;;;17.50;100.00
46836;BME280;32573;51.290;6.926;2022-08-19T05:00:17;99938.91;;;17.49;100.00
46836;BME280;32573;51.290;6.926;2022-08-19T05:02:46;99944.19;;;17.49;100.00
46836;BME280;32573;51.290;6.926;2022-08-19T05:05:16;99948.59;;;17.48;100.00
46836;BME280;32573;51.290;6.926;2022-08-19T05:07:45;99947.72;;;17.46;100.00
46836;BME280;32573;51.290;6.926;2022-08-19T05:10:13;99953.91;;;17.46;100.00
46836;BME280;32573;51.290;6.926;2022-08-19T05:12:42;99959.19;;;17.46;100.00
46836;BME280;32573;51.290;6.926;2022-08-19T05:15:11;99964.50;;;17.45;100.00
46836;BME280;32573;51.290;6.926;2022-08-19T05:17:40;99954.78;;;17.45;100.00
46836;BME280;32573;51.290;6.926;2022-08-19T05:20:29;99968.91;;;17.46;100.00
46836;BME280;32573;51.290;6.926;2022-08-19T05:23:15;99967.13;;;17.46;100.00
46836;BME280;32573;51.290;6.926;2022-08-19T05:25:49;99976.84;;;17.48;100.00
46836;BME280;32573;51.290;6.926;2022-08-19T05:28:19;99978.59;;;17.49;100.00
46836;BME280;32573;51.290;6.926;2022-08-19T05:30:49;99972.41;;;17.50;100.00
46836;BME280;32573;51.290;6.926;2022-08-19T05:33:18;99977.72;;;17.53;100.00
46836;BME280;32573;51.290;6.926;2022-08-19T05:35:47;99976.81;;;17.55;100.00
46836;BME280;32573;51.290;6.926;2022-08-19T05:38:16;99980.31;;;17.59;100.00
46836;BME280;32573;51.290;6.926;2022-08-19T05:40:45;99972.34;;;17.62;100.00
46836;BME280;32573;51.290;6.926;2022-08-19T05:43:14;99977.66;;;17.65;100.00
46836;BME280;32573;51.290;6.926;2022-08-19T05:45:43;99972.34;;;17.68;100.00
46836;BME280;32573;51.290;6.926;2022-08-19T05:48:13;99978.50;;;17.72;100.00
46836;BME280;32573;51.290;6.926;2022-08-19T05:50:47;99985.56;;;17.76;100.00
46836;BME280;32573;51.290;6.926;2022-08-19T05:53:17;99984.66;;;17.78;100.00
46836;BME280;32573;51.290;6.926;2022-08-19T05:55:46;99981.16;;;17.82;100.00
46836;BME280;32573;51.290;6.926;2022-08-19T05:58:14;99972.28;;;17.86;100.00
46836;BME280;32573;51.290;6.926;2022-08-19T06:00:43;99962.56;;;17.90;100.00
46836;BME280;32573;51.290;6.926;2022-08-19T06:03:13;99965.22;;;17.95;100.00
46836;BME280;32573;51.290;6.926;2022-08-19T06:05:42;99970.47;;;17.98;100.00
46836;BME280;32573;51.290;6.926;2022-08-19T06:08:19;99964.25;;;18.03;100.00
46836;BME280;32573;51.290;6.926;2022-08-19T06:11:19;99967.72;;;18.11;100.00
46836;BME280;32573;51.290;6.926;2022-08-19T06:13:49;99966.84;;;18.17;100.00
46836;BME280;32573;51.290;6.926;2022-08-19T06:16:26;99968.56;;;18.23;100.00
46836;BME280;32573;51.290;6.926;2022-08-19T06:19:00;99975.59;;;18.28;100.00
46836;BME280;32573;51.290;6.926;2022-08-19T06:21:30;99974.66;;;18.34;100.00
46836;BME280;32573;51.290;6.926;2022-08-19T06:23:59;99975.50;;;18.41;100.00
46836;BME280;32573;51.290;6.926;2022-08-19T06:26:27;99979.00;;;18.46;100.00
46836;BME280;32573;51.290;6.926;2022-08-19T06:28:56;99969.25;;;18.49;100.00
46836;BME280;32573;51.290;6.926;2022-08-19T06:31:27;99973.63;;;18.55;100.00
46836;BME280;32573;51.290;6.926;2022-08-19T06:33:57;99970.91;;;18.61;100.00
46836;BME280;32573;51.290;6.926;2022-08-19T06:36:28;99975.28;;;18.67;100.00
46836;BME280;32573;51.290;6.926;2022-08-19T06:39:02;99971.72;;;18.72;100.00
46836;BME280;32573;51.290;6.926;2022-08-19T06:41:35;99980.56;;;18.78;100.00
46836;BME280;32573;51.290;6.926;2022-08-19T06:44:17;99976.09;;;18.83;100.00
46836;BME280;32573;51.290;6.926;2022-08-19T06:46:46;99979.56;;;18.88;100.00
46836;BME280;32573;51.290;6.926;2022-08-19T06:49:22;99977.75;;;18.91;100.00
46836;BME280;32573;51.290;6.926;2022-08-19T06:51:54;99969.75;;;18.96;100.00
46836;BME280;32573;51.290;6.926;2022-08-19T06:54:24;99964.44;;;18.99;100.00
46836;BME280;32573;51.290;6.926;2022-08-19T06:56:57;99970.56;;;19.04;100.00
46836;BME280;32573;51.290;6.926;2022-08-19T06:59:28;99961.69;;;19.07;100.00
46836;BME280;32573;51.290;6.926;2022-08-19T07:02:01;99974.91;;;19.11;100.00
46836;BME280;32573;51.290;6.926;2022-08-19T07:04:33;99976.66;;;19.15;100.00
46836;BME280;32573;51.290;6.926;2022-08-19T07:07:05;99978.41;;;19.18;100.00
46836;BME280;32573;51.290;6.926;2022-08-19T07:09:49;99975.69;;;19.23;100.00
46836;BME280;32573;51.290;6.926;2022-08-19T07:12:28;99972.13;;;19.25;100.00
46836;BME280;32573;51.290;6.926;2022-08-19T07:15:03;99978.28;;;19.29;100.00
46836;BME280;32573;51.290;6.926;2022-08-19T07:17:31;99978.25;;;19.32;100.00
46836;BME280;32573;51.290;6.926;2022-08-19T07:20:04;99985.28;;;19.37;100.00
46836;BME280;32573;51.290;6.926;2022-08-19T07:22:36;99989.69;;;19.40;100.00
46836;BME280;32573;51.290;6.926;2022-08-19T07:25:07;99997.59;;;19.43;100.00
46836;BME280;32573;51.290;6.926;2022-08-19T07:27:36;99994.03;;;19.47;100.00
46836;BME280;32573;51.290;6.926;2022-08-19T07:30:07;100004.59;;;19.50;100.00
46836;BME280;32573;51.290;6.926;2022-08-19T07:32:39;100001.91;;;19.55;100.00
46836;BME280;32573;51.290;6.926;2022-08-19T07:35:09;100000.97;;;19.57;100.00
46836;BME280;32573;51.290;6.926;2022-08-19T07:37:38;100006.25;;;19.60;100.00
46836;BME280;32573;51.290;6.926;2022-08-19T07:40:11;100001.78;;;19.64;100.00
46836;BME280;32573;51.290;6.926;2022-08-19T07:42:40;100012.38;;;19.69;100.00
46836;BME280;32573;51.290;6.926;2022-08-19T07:45:09;100030.91;;;19.73;100.00
46836;BME280;32573;51.290;6.926;2022-08-19T07:47:38;100016.72;;;19.76;100.00
46836;BME280;32573;51.290;6.926;2022-08-19T07:50:26;100027.31;;;19.79;100.00
46836;BME280;32573;51.290;6.926;2022-08-19T07:52:54;100029.03;;;19.81;100.00
46836;BME280;32573;51.290;6.926;2022-08-19T07:55:25;100031.69;;;19.85;100.00
46836;BME280;32573;51.290;6.926;2022-08-19T07:58:10;100044.88;;;19.89;100.00
46836;BME280;32573;51.290;6.926;2022-08-19T08:00:40;100033.38;;;19.90;100.00
46836;BME280;32573;51.290;6.926;2022-08-19T08:03:08;100048.38;;;19.94;100.00
46836;BME280;32573;51.290;6.926;2022-08-19T08:05:38;100053.66;;;19.97;100.00
46836;BME280;32573;51.290;6.926;2022-08-19T08:08:24;100040.34;;;20.02;100.00
46836;BME280;32573;51.290;6.926;2022-08-19T08:11:15;100041.16;;;20.06;100.00
46836;BME280;32573;51.290;6.926;2022-08-19T08:13:47;100041.97;;;20.11;100.00
46836;BME280;32573;51.290;6.926;2022-08-19T08:16:33;100050.75;;;20.16;100.00
46836;BME280;32573;51.290;6.926;2022-08-19T08:19:13;100052.44;;;20.21;100.00
46836;BME280;32573;51.290;6.926;2022-08-19T08:21:54;100043.53;;;20.27;100.00
46836;BME280;32573;51.290;6.926;2022-08-19T08:24:23;100046.97;;;20.35;100.00
46836;BME280;32573;51.290;6.926;2022-08-19T08:26:55;100045.97;;;20.42;100.00
46836;BME280;32573;51.290;6.926;2022-08-19T08:29:26;100040.50;;;20.52;100.00
46836;BME280;32573;51.290;6.926;2022-08-19T08:32:02;100043.06;;;20.61;100.00
46836;BME280;32573;51.290;6.926;2022-08-19T08:34:41;100055.28;;;20.74;100.00
46836;BME280;32573;51.290;6.926;2022-08-19T08:37:11;100045.41;;;20.82;100.00
46836;BME280;32573;51.290;6.926;2022-08-19T08:39:42;100046.13;;;20.92;100.00
46836;BME280;32573;51.290;6.926;2022-08-19T08:42:17;100050.41;;;21.02;100.00
46836;BME280;32573;51.290;6.926;2022-08-19T08:44:53;100045.81;;;21.12;100.00
46836;BME280;32573;51.290;6.926;2022-08-19T08:47:30;100051.00;;;21.20;100.00
46836;BME280;32573;51.290;6.926;2022-08-19T08:50:01;100051.72;;;21.29;100.00
46836;BME280;32573;51.290;6.926;2022-08-19T08:52:33;100050.72;;;21.35;100.00
46836;BME280;32573;51.290;6.926;2022-08-19T08:55:08;100050.66;;;21.40;100.00
46836;BME280;32573;51.290;6.926;2022-08-19T08:57:43;100050.63;;;21.41;100.00
46836;BME280;32573;51.290;6.926;2022-08-19T09:00:16;100051.47;;;21.45;100.00
46836;BME280;32573;51.290;6.926;2022-08-19T09:02:45;100047.88;;;21.46;100.00
46836;BME280;32573;51.290;6.926;2022-08-19T09:05:17;100046.94;;;21.50;100.00
46836;BME280;32573;51.290;6.926;2022-08-19T09:07:58;100043.31;;;21.52;100.00
46836;BME280;32573;51.290;6.926;2022-08-19T09:10:32;100041.44;;;21.58;100.00
46836;BME280;32573;51.290;6.926;2022-08-19T09:13:17;100033.38;;;21.62;100.00
46836;BME280;32573;51.290;6.926;2022-08-19T09:15:52;100047.41;;;21.70;100.00
46836;BME280;32573;51.290;6.926;2022-08-19T09:18:23;100040.19;;;21.77;100.00
46836;BME280;32573;51.290;6.926;2022-08-19T09:20:55;100043.59;;;21.84;100.00
46836;BME280;32573;51.290;6.926;2022-08-19T09:23:25;100039.88;;;21.91;100.00
46836;BME280;32573;51.290;6.926;2022-08-19T09:25:54;100046.84;;;21.98;100.00
46836;BME280;32573;51.290;6.926;2022-08-19T09:28:24;100051.22;;;22.02;100.00
46836;BME280;32573;51.290;6.926;2022-08-19T09:30:53;100042.22;;;22.06;100.00
46836;BME280;32573;51.290;6.926;2022-08-19T09:33:21;100046.59;;;22.10;100.00
46836;BME280;32573;51.290;6.926;2022-08-19T09:36:02;100038.59;;;22.12;100.00
46836;BME280;32573;51.290;6.926;2022-08-19T09:38:36;100043.84;;;22.13;100.00
46836;BME280;32573;51.290;6.926;2022-08-19T09:41:11;100049.13;;;22.16;100.00
46836;BME280;32573;51.290;6.926;2022-08-19T09:43:44;100041.97;;;22.20;100.00
46836;BME280;32573;51.290;6.926;2022-08-19T09:46:14;100037.44;;;22.24;100.00
46836;BME280;32573;51.290;6.926;2022-08-19T09:48:44;100040.88;;;22.29;100.00
46836;BME280;32573;51.290;6.926;2022-08-19T09:51:20;100044.31;;;22.34;100.00
46836;BME280;32573;51.290;6.926;2022-08-19T09:53:51;100040.63;;;22.41;100.00
46836;BME280;32573;51.290;6.926;2022-08-19T09:56:22;100030.66;;;22.49;100.00
46836;BME280;32573;51.290;6.926;2022-08-19T09:58:50;100020.72;;;22.56;100.00
46836;BME280;32573;51.290;6.926;2022-08-19T10:01:21;100033.88;;;22.64;100.00
46836;BME280;32573;51.290;6.926;2022-08-19T10:03:52;100036.41;;;22.70;100.00
46836;BME280;32573;51.290;6.926;2022-08-19T10:06:22;100034.50;;;22.75;100.00
46836;BME280;32573;51.290;6.926;2022-08-19T10:09:14;100037.94;;;22.80;100.00
46836;BME280;32573;51.290;6.926;2022-08-19T10:11:52;100038.72;;;22.83;100.00
46836;BME280;32573;51.290;6.926;2022-08-19T10:14:21;100034.22;;;22.87;100.00
46836;BME280;32573;51.290;6.926;2022-08-19T10:16:50;100041.19;;;22.91;100.00
46836;BME280;32573;51.290;6.926;2022-08-19T10:19:19;100031.34;;;22.95;100.00
46836;BME280;32573;51.290;6.926;2022-08-19T10:21:52;100031.19;;;23.01;100.00
46836;BME280;32573;51.290;6.926;2022-08-19T10:24:27;100031.94;;;23.08;100.00
46836;BME280;32573;51.290;6.926;2022-08-19T10:26:57;100026.47;;;23.12;100.00
46836;BME280;32573;51.290;6.926;2022-08-19T10:29:26;100020.94;;;23.20;100.00
46836;BME280;32573;51.290;6.926;2022-08-19T10:32:00;100019.78;;;23.30;100.00
46836;BME280;32573;51.290;6.926;2022-08-19T10:34:29;100017.72;;;23.41;100.00
46836;BME280;32573;51.290;6.926;2022-08-19T10:36:59;100005.84;;;23.52;100.00
46836;BME280;32573;51.290;6.926;2022-08-19T10:39:31;100012.72;;;23.60;100.00
46836;BME280;32573;51.290;6.926;2022-08-19T10:42:09;100016.94;;;23.69;100.00
46836;BME280;32573;51.290;6.926;2022-08-19T10:44:40;100015.84;;;23.76;100.00
46836;BME280;32573;51.290;6.926;2022-08-19T10:47:09;100015.69;;;23.82;100.00
46836;BME280;32573;51.290;6.926;2022-08-19T10:49:51;100013.66;;;23.90;100.00
46836;BME280;32573;51.290;6.926;2022-08-19T10:52:39;100003.66;;;23.97;100.00
46836;BME280;32573;51.290;6.926;2022-08-19T10:55:19;100015.06;;;24.04;100.00
46836;BME280;32573;51.290;6.926;2022-08-19T10:58:10;100016.53;;;24.14;100.00
46836;BME280;32573;51.290;6.926;2022-08-19T11:00:39;100031.63;;;24.17;100.00
46836;BME280;32573;51.290;6.926;2022-08-19T11:03:09;100013.75;;;24.17;100.00
46836;BME280;32573;51.290;6.926;2022-08-19T11:05:37;100016.22;;;24.23;100.00
46836;BME280;32573;51.290;6.926;2022-08-19T11:08:07;100022.16;;;24.35;100.00
46836;BME280;32573;51.290;6.926;2022-08-19T11:10:53;100018.25;;;24.46;100.00
46836;BME280;32573;51.290;6.926;2022-08-19T11:13:23;100020.69;;;24.54;100.00
46836;BME280;32573;51.290;6.926;2022-08-19T11:15:59;100015.16;;;24.59;100.00
46836;BME280;32573;51.290;6.926;2022-08-19T11:18:35;100014.88;;;24.68;100.00
46836;BME280;32573;51.290;6.926;2022-08-19T11:21:13;100013.84;;;24.72;100.00
46836;BME280;32573;51.290;6.926;2022-08-19T11:23:44;100019.84;;;24.79;100.00
46836;BME280;32573;51.290;6.926;2022-08-19T11:26:15;100017.94;;;24.84;100.00
46836;BME280;32573;51.290;6.926;2022-08-19T11:28:44;100011.53;;;24.88;100.00
46836;BME280;32573;51.290;6.926;2022-08-19T11:31:15;100016.63;;;24.95;100.00
46836;BME280;32573;51.290;6.926;2022-08-19T11:33:44;100007.41;;;25.04;100.00
46836;BME280;32573;51.290;6.926;2022-08-19T11:36:14;100014.31;;;25.11;100.00
46836;BME280;32573;51.290;6.926;2022-08-19T11:38:43;100015.94;;;25.15;100.00
46836;BME280;32573;51.290;6.926;2022-08-19T11:41:11;99998.88;;;25.20;100.00
46836;BME280;32573;51.290;6.926;2022-08-19T11:43:41;100010.19;;;25.28;100.00
46836;BME280;32573;51.290;6.926;2022-08-19T11:46:12;99989.47;;;25.33;100.00
46836;BME280;32573;51.290;6.926;2022-08-19T11:48:41;99999.97;;;25.39;100.00
46836;BME280;32573;51.290;6.926;2022-08-19T11:51:11;99997.91;;;25.47;100.00
46836;BME280;32573;51.290;6.926;2022-08-19T11:53:40;99993.81;;;25.60;100.00
46836;BME280;32573;51.290;6.926;2022-08-19T11:56:09;99998.63;;;25.76;100.00
46836;BME280;32573;51.290;6.926;2022-08-19T11:58:38;99990.34;;;25.82;100.00
46836;BME280;32573;51.290;6.926;2022-08-19T12:01:11;99992.59;;;25.94;100.00
46836;BME280;32573;51.290;6.926;2022-08-19T12:03:40;99987.28;;;25.93;100.00
46836;BME280;32573;51.290;6.926;2022-08-19T12:06:14;99983.25;;;26.04;100.00
46836;BME280;32573;51.290;6.926;2022-08-19T12:08:44;99986.28;;;26.19;100.00
46836;BME280;32573;51.290;6.926;2022-08-19T12:11:13;99992.03;;;26.32;100.00
46836;BME280;32573;51.290;6.926;2022-08-19T12:13:42;99994.41;;;26.39;100.00
46836;BME280;32573;51.290;6.926;2022-08-19T12:16:15;99987.53;;;26.32;100.00
46836;BME280;32573;51.290;6.926;2022-08-19T12:18:45;99979.66;;;26.28;100.00
46836;BME280;32573;51.290;6.926;2022-08-19T12:21:14;99977.28;;;26.20;100.00
46836;BME280;32573;51.290;6.926;2022-08-19T12:23:43;99980.84;;;26.20;100.00
46836;BME280;32573;51.290;6.926;2022-08-19T12:26:13;99975.28;;;26.25;100.00
46836;BME280;32573;51.290;6.926;2022-08-19T12:28:42;99976.81;;;26.32;100.00
46836;BME280;32573;51.290;6.926;2022-08-19T12:31:11;99972.81;;;26.42;100.00
46836;BME280;32573;51.290;6.926;2022-08-19T12:33:41;99974.97;;;26.56;100.00
46836;BME280;32573;51.290;6.926;2022-08-19T12:36:12;99970.09;;;26.66;100.00
46836;BME280;32573;51.290;6.926;2022-08-19T12:38:41;99962.44;;;26.77;100.00
46836;BME280;32573;51.290;6.926;2022-08-19T12:41:14;99966.56;;;26.86;100.00
46836;BME280;32573;51.290;6.926;2022-08-19T12:43:45;99966.91;;;26.99;100.00
46836;BME280;32573;51.290;6.926;2022-08-19T12:46:16;99970.00;;;27.10;100.00
46836;BME280;32573;51.290;6.926;2022-08-19T12:48:53;99967.97;;;27.15;100.00
46836;BME280;32573;51.290;6.926;2022-08-19T12:51:22;99971.38;;;27.20;100.00
46836;BME280;32573;51.290;6.926;2022-08-19T12:53:52;99971.47;;;27.17;100.00
46836;BME280;32573;51.290;6.926;2022-08-19T12:56:20;99969.84;;;27.13;100.00
46836;BME280;32573;51.290;6.926;2022-08-19T12:58:49;99957.53;;;27.09;100.00
46836;BME280;32573;51.290;6.926;2022-08-19T13:01:19;99966.25;;;27.14;100.00
46836;BME280;32573;51.290;6.926;2022-08-19T13:03:50;99971.13;;;27.26;100.00
46836;BME280;32573;51.290;6.926;2022-08-19T13:06:21;99960.94;;;27.33;100.00
46836;BME280;32573;51.290;6.926;2022-08-19T13:08:49;99953.22;;;27.46;100.00
46836;BME280;32573;51.290;6.926;2022-08-19T13:11:23;99957.25;;;27.56;100.00
46836;BME280;32573;51.290;6.926;2022-08-19T13:13:52;99964.88;;;27.65;100.00